Greenville, SC (29605)

9:58 PM EDT on August 20, 2014 (GMT -0400)
Augusta Rd / Riverside Dr Area | Change Station
CLOSE
Current Station
Personal Weather Station
Location: Greenville, SC
Elevation: 967 ft
Nearby Weather Stations

Elev 967 ft 34.81 °N, 82.38 °W | Updated 29 minutes ago

Clear
Clear
72.7 °F
Feels Like 73 °F
N
0.0
Wind Variable Wind from WNW
Gusts 0.0 mph

Today
High -- | Low -- °F
--% Chance of Precip.
Yesterday
High -- | Low -- °F
Precip. -- in
6:53 AM 8:11 PM
Waning Crescent, 17% visible
Pressure 30.06 in
Visibility 10.0 miles
Clouds Clear
Heat Index 73 °F
Dew Point 65 °F
Humidity 78%
Rainfall 0.00 in
Snow Depth Not available.
UV 0 out of 12
Pollen 8.40 out of 12
Ozone Good
PM2.5 Good
Flu Activity Not available.
METAR KGYH 210135Z AUTO 32003KT 10SM CLR 24/17 A3006 RMK AO2

More Conditions Fewer Conditions

Pressure 30.06 in
Visibility 10.0 miles
Clouds Clear
Heat Index 73 °F
Dew Point 65 °F
Humidity 78%
Rainfall 0.00 in
Snow Depth Not available.
UV 0 out of 12
Pollen 8.40 out of 12
Ozone Good
PM2.5 Good
Flu Activity Not available.
METAR KGYH 210135Z AUTO 32003KT 10SM CLR 24/17 A3006 RMK AO2

More Conditions Fewer Conditions

10-Day Weather Forecast

Almanac

Astronomy

Aug. 20, 2014 Rise Set
Actual Time 6:53 AM EDT 8:11 PM EDT
Civil Twilight 6:27 AM EDT 8:38 PM EDT
Nautical Twilight 5:55 AM EDT 9:09 PM EDT
Astronomical Twilight 5:22 AM EDT 9:42 PM EDT
Moon 2:36 AM EDT (8/20) 4:51 PM EDT (8/20)
Length of Visible Light 14h 10m
Length of Day
13h 18m
Tomorrow will be 1m 59s shorter.
Waning Crescent, 17% of the Moon is Illuminated
Today
Waning Crescent
Aug 25
New
Sep 2
First Quarter
Sep 8
Full
Sep 15
Last Quarter

Today's Extremes

State Highs State Lows

Community

WunderPhotos

Upload Photos

1,745,859 photos uploaded!

WunderBlogs® & News

Nearby

Air Quality

  Air Quality AQ Index Pollutant
Yesterday Good
OZONE
Yesterday Good
PM2.5
Current Good
PM2.5
Current Good
OZONE
Wednesday Good
OZONE
Thursday Good
OZONE

Snow Depth

Station Depth Elevation
No new snow has been reported.

Earthquake Activity

City Distance Mag. Time & Date
No recent earthquake activity has been reported nearby.
Minimum magnitude displayed is 2.5.

Coastal Water Temperatures

Place Temperature
No Stations Reporting

Nearby Weather Stations